Pagina principale
METAR-TAF:

METAR-TAF

Aeroporti :

Perugia, Italia

Aeroporto di Perugia

latitudine: 43-05N, longitudine: 012-30E, altezza: 208 m

Osservazione

Il bollettino è stato emesso 1 ora e 37 minuti fa, alle 08:50 UTC
Vento 2 kt da direzioni variabili
Temperature 15°C
Umidità 55%
Pressione 1021 hPa
Visibilità 10 km o più
nessuna nube inferiore a 1500 m e nessun cumulonembo

METAR: LIRZ 210850Z VRB02KT CAVOK 15/06 Q1021

Ora: 12:27 (10:27 UTC)

Previsione

Il bollettino è stato emesso 5 ore e 27 minuti fa, alle 05:00 UTC
Previsione valida dal 21 alle 06 UTC al 22 alle 06 UTC
Vento 6 kt da direzioni variabili
Visibilità 10 km o più
Poco nuvoloso ad un'altezza di 3000 ft

TAF: LIRZ 210500Z 2106/2206 VRB06KT 9999 FEW030

Osservazioni e previsioni meteorologiche di più di 4000 aeroporti (messaggi METAR e TAF).

Le stazioni disponibili sono rappresentate dai dischi gialli e rossi sulla carta.

Puntare il mouse per vedere il nome della stazione.

Clicca sopra per visualizzare le osservazioni e previsioni meteorologiche.

Per cambiare la mappa : fare clic sui pulsanti verdi con una croce nera per ingrandire, il pulsante verde con un trattino per diminuire, o sulla freccia verde per le mappe adiacenti.


METAR-TAF: